XBJCS MMAA-MPTO
Flight info
| Callsign | XBJCS |
|---|---|
| Flight time | N/A |
| Altitude | 45000 |
| Route | SELIS DCT OAX DCT IZT DCT TAP DCT SJO DCT CAT DCT MGA DCT TIO DCT DAV DCT STG DCT RODAX SIRIL3C |
| Aircraft | C750/M-SBDE3FGHRWXY/S |
Departure
| Time | 2026-04-26 17:30 |
|---|---|
| Airport | General Juan N. Álvarez International Airport (MMAA) |
Arrival
| Time | N/A |
|---|---|
| Airport | Tocumen International Airport (MPTO) |
| Time | Latitude | Longitude | Altitude | Speed | Heading |
|---|---|---|---|---|---|
| 2026-04-26 17:10 | 16.76097 | -99.75093 | 17 ft | 0 kts | 247° |
| 2026-04-26 17:22 | 16.76096 | -99.75095 | 17 ft | 1 kts | 247° |
| 2026-04-26 17:22 | 16.76088 | -99.75112 | 19 ft | 4 kts | 238° |
| 2026-04-26 17:22 | 16.76068 | -99.75141 | 17 ft | 7 kts | 235° |
| 2026-04-26 17:23 | 16.76038 | -99.75187 | 19 ft | 9 kts | 212° |
| 2026-04-26 17:23 | 16.75980 | -99.75174 | 17 ft | 10 kts | 156° |
| 2026-04-26 17:23 | 16.75906 | -99.75140 | 17 ft | 13 kts | 156° |
| 2026-04-26 17:23 | 16.75843 | -99.75082 | 19 ft | 11 kts | 120° |
| 2026-04-26 17:24 | 16.75796 | -99.75012 | 19 ft | 13 kts | 108° |
| 2026-04-26 17:24 | 16.75763 | -99.74913 | 17 ft | 16 kts | 110° |
| 2026-04-26 17:24 | 16.75726 | -99.74795 | 19 ft | 18 kts | 106° |
| 2026-04-26 17:24 | 16.75684 | -99.74662 | 18 ft | 21 kts | 108° |
| 2026-04-26 17:25 | 16.75636 | -99.74512 | 18 ft | 23 kts | 107° |
| 2026-04-26 17:25 | 16.75586 | -99.74347 | 17 ft | 25 kts | 109° |
| 2026-04-26 17:25 | 16.75529 | -99.74170 | 17 ft | 26 kts | 104° |
| 2026-04-26 17:25 | 16.75494 | -99.74055 | 17 ft | 15 kts | 109° |
| 2026-04-26 17:26 | 16.75465 | -99.73958 | 18 ft | 13 kts | 108° |
| 2026-04-26 17:26 | 16.75436 | -99.73871 | 19 ft | 12 kts | 110° |
| 2026-04-26 17:26 | 16.75412 | -99.73795 | 18 ft | 10 kts | 108° |
| 2026-04-26 17:26 | 16.75394 | -99.73728 | 17 ft | 8 kts | 109° |
| 2026-04-26 17:27 | 16.75369 | -99.73656 | 19 ft | 13 kts | 110° |
| 2026-04-26 17:27 | 16.75338 | -99.73552 | 19 ft | 17 kts | 107° |
| 2026-04-26 17:27 | 16.75297 | -99.73421 | 17 ft | 20 kts | 106° |
| 2026-04-26 17:27 | 16.75235 | -99.73331 | 17 ft | 14 kts | 171° |
| 2026-04-26 17:28 | 16.75156 | -99.73347 | 19 ft | 0 kts | 205° |
| 2026-04-26 17:28 | 16.75146 | -99.73352 | 20 ft | 3 kts | 205° |
| 2026-04-26 17:29 | 16.75114 | -99.73370 | 19 ft | 7 kts | 212° |
| 2026-04-26 17:29 | 16.75089 | -99.73398 | 20 ft | 9 kts | 251° |
| 2026-04-26 17:29 | 16.75135 | -99.73552 | 15 ft | 44 kts | 287° |
| 2026-04-26 17:29 | 16.75325 | -99.74146 | 17 ft | 126 kts | 288° |
| 2026-04-26 17:30 | 16.75646 | -99.75128 | 287 ft | 146 kts | 288° |
| 2026-04-26 17:30 | 16.75954 | -99.76193 | 649 ft | 170 kts | 275° |
| 2026-04-26 17:30 | 16.75725 | -99.77501 | 824 ft | 202 kts | 246° |
| 2026-04-26 17:30 | 16.74772 | -99.78673 | 969 ft | 231 kts | 213° |
| 2026-04-26 17:31 | 16.73154 | -99.79113 | 1135 ft | 248 kts | 176° |
| 2026-04-26 17:31 | 16.71575 | -99.78386 | 1298 ft | 256 kts | 140° |
| 2026-04-26 17:31 | 16.70456 | -99.76928 | 1583 ft | 260 kts | 125° |
| 2026-04-26 17:31 | 16.69469 | -99.75323 | 1889 ft | 264 kts | 124° |
| 2026-04-26 17:32 | 16.68416 | -99.73741 | 2167 ft | 267 kts | 127° |
| 2026-04-26 17:32 | 16.67285 | -99.72189 | 2417 ft | 270 kts | 128° |
| 2026-04-26 17:32 | 16.66151 | -99.70623 | 2649 ft | 272 kts | 127° |
| 2026-04-26 17:32 | 16.65033 | -99.69026 | 2873 ft | 273 kts | 126° |
| 2026-04-26 17:33 | 16.63912 | -99.67409 | 3096 ft | 275 kts | 126° |
| 2026-04-26 17:33 | 16.62730 | -99.65839 | 3286 ft | 276 kts | 135° |
| 2026-04-26 17:33 | 16.61278 | -99.64534 | 3504 ft | 277 kts | 141° |
| 2026-04-26 17:34 | 16.58372 | -99.61872 | 3957 ft | 278 kts | 137° |
| 2026-04-26 17:34 | 16.56968 | -99.60513 | 4190 ft | 279 kts | 138° |
| 2026-04-26 17:34 | 16.55518 | -99.59155 | 4423 ft | 281 kts | 139° |
| 2026-04-26 17:34 | 16.54209 | -99.57650 | 4556 ft | 283 kts | 120° |
| 2026-04-26 17:35 | 16.53707 | -99.55682 | 4688 ft | 283 kts | 92° |
| 2026-04-26 17:35 | 16.54095 | -99.53699 | 4862 ft | 280 kts | 67° |
| 2026-04-26 17:35 | 16.54910 | -99.51848 | 5139 ft | 281 kts | 63° |
| 2026-04-26 17:35 | 16.55755 | -99.49997 | 5395 ft | 283 kts | 64° |
| 2026-04-26 17:36 | 16.56573 | -99.48122 | 5649 ft | 284 kts | 65° |
| 2026-04-26 17:36 | 16.57374 | -99.46234 | 5889 ft | 286 kts | 65° |
| 2026-04-26 17:36 | 16.58190 | -99.44341 | 6117 ft | 287 kts | 64° |
| 2026-04-26 17:36 | 16.59024 | -99.42445 | 6338 ft | 288 kts | 64° |
| 2026-04-26 17:37 | 16.59861 | -99.40547 | 6560 ft | 288 kts | 64° |
| 2026-04-26 17:37 | 16.60695 | -99.38639 | 6787 ft | 287 kts | 64° |
| 2026-04-26 17:37 | 16.61519 | -99.36752 | 7014 ft | 289 kts | 64° |
| 2026-04-26 17:38 | 16.63200 | -99.32912 | 7454 ft | 292 kts | 64° |
| 2026-04-26 17:38 | 16.64044 | -99.30981 | 7681 ft | 293 kts | 64° |
| 2026-04-26 17:38 | 16.64888 | -99.29046 | 7912 ft | 294 kts | 64° |
| 2026-04-26 17:38 | 16.65738 | -99.27101 | 8134 ft | 295 kts | 64° |
| 2026-04-26 17:39 | 16.66592 | -99.25153 | 8357 ft | 296 kts | 64° |
| 2026-04-26 17:39 | 16.67448 | -99.23195 | 8578 ft | 297 kts | 64° |
| 2026-04-26 17:39 | 16.68306 | -99.21231 | 8807 ft | 297 kts | 65° |
| 2026-04-26 17:39 | 16.69166 | -99.19261 | 9035 ft | 299 kts | 65° |
| 2026-04-26 17:40 | 16.70028 | -99.17288 | 9255 ft | 299 kts | 64° |
| 2026-04-26 17:40 | 16.70601 | -99.15976 | 9408 ft | 299 kts | 65° |
| 2026-04-26 17:40 | 16.71755 | -99.13333 | 9714 ft | 300 kts | 65° |
| 2026-04-26 17:40 | 16.72609 | -99.11371 | 9934 ft | 300 kts | 65° |
| 2026-04-26 17:41 | 16.73481 | -99.09372 | 10167 ft | 311 kts | 65° |
| 2026-04-26 17:41 | 16.74416 | -99.07241 | 10412 ft | 335 kts | 65° |
| 2026-04-26 17:41 | 16.75409 | -99.04973 | 10655 ft | 350 kts | 65° |
| 2026-04-26 17:41 | 16.76426 | -99.02639 | 10907 ft | 356 kts | 65° |
| 2026-04-26 17:42 | 16.77458 | -99.00257 | 11495 ft | 361 kts | 65° |
| 2026-04-26 17:42 | 16.78494 | -98.97868 | 12304 ft | 362 kts | 65° |
| 2026-04-26 17:42 | 16.79537 | -98.95467 | 13035 ft | 365 kts | 65° |
| 2026-04-26 17:42 | 16.80591 | -98.93045 | 13709 ft | 368 kts | 65° |
| 2026-04-26 17:43 | 16.81654 | -98.90605 | 14353 ft | 371 kts | 65° |
| 2026-04-26 17:43 | 16.82464 | -98.88041 | 14868 ft | 376 kts | 81° |
| 2026-04-26 17:43 | 16.82648 | -98.85316 | 15542 ft | 377 kts | 87° |
| 2026-04-26 17:43 | 16.82792 | -98.82573 | 16178 ft | 380 kts | 86° |
| 2026-04-26 17:44 | 16.83040 | -98.79814 | 16825 ft | 382 kts | 84° |
| 2026-04-26 17:44 | 16.83318 | -98.77043 | 17473 ft | 386 kts | 84° |
| 2026-04-26 17:44 | 16.83541 | -98.74239 | 18113 ft | 389 kts | 86° |
| 2026-04-26 17:44 | 16.83715 | -98.71407 | 18776 ft | 393 kts | 86° |
| 2026-04-26 17:45 | 16.83898 | -98.68543 | 19387 ft | 397 kts | 85° |
| 2026-04-26 17:45 | 16.84115 | -98.65652 | 20024 ft | 401 kts | 85° |
| 2026-04-26 17:45 | 16.84344 | -98.62770 | 20611 ft | 405 kts | 85° |
| 2026-04-26 17:45 | 16.84563 | -98.59822 | 21252 ft | 409 kts | 85° |
| 2026-04-26 17:46 | 16.84770 | -98.56841 | 21848 ft | 413 kts | 85° |
| 2026-04-26 17:46 | 16.84980 | -98.53836 | 22455 ft | 417 kts | 84° |
| 2026-04-26 17:46 | 16.85201 | -98.50799 | 23027 ft | 422 kts | 84° |
| 2026-04-26 17:46 | 16.85428 | -98.47728 | 23601 ft | 425 kts | 84° |
| 2026-04-26 17:47 | 16.85652 | -98.44639 | 24155 ft | 430 kts | 84° |
| 2026-04-26 17:47 | 16.85798 | -98.42572 | 24508 ft | 432 kts | 84° |
| 2026-04-26 17:47 | 16.86095 | -98.38353 | 25217 ft | 439 kts | 84° |
| 2026-04-26 17:47 | 16.86325 | -98.35163 | 25743 ft | 443 kts | 84° |
| 2026-04-26 17:48 | 16.86557 | -98.31945 | 26236 ft | 447 kts | 84° |
| 2026-04-26 17:48 | 16.86789 | -98.28686 | 26726 ft | 452 kts | 84° |
| 2026-04-26 17:48 | 16.87020 | -98.25399 | 27217 ft | 456 kts | 84° |
| 2026-04-26 17:48 | 16.87253 | -98.22081 | 27678 ft | 460 kts | 84° |
| 2026-04-26 17:49 | 16.87489 | -98.18733 | 28159 ft | 464 kts | 84° |
| 2026-04-26 17:49 | 16.87728 | -98.15358 | 28613 ft | 469 kts | 84° |
| 2026-04-26 17:49 | 16.87968 | -98.11946 | 29050 ft | 473 kts | 84° |
| 2026-04-26 17:49 | 16.88209 | -98.08504 | 29463 ft | 477 kts | 84° |
| 2026-04-26 17:50 | 16.88447 | -98.05085 | 29872 ft | 481 kts | 84° |
| 2026-04-26 17:50 | 16.88691 | -98.01584 | 30250 ft | 485 kts | 84° |
| 2026-04-26 17:50 | 16.88936 | -97.98060 | 30651 ft | 488 kts | 84° |
| 2026-04-26 17:50 | 16.89183 | -97.94509 | 31043 ft | 491 kts | 84° |
| 2026-04-26 17:51 | 16.89428 | -97.90959 | 31607 ft | 490 kts | 84° |
| 2026-04-26 17:51 | 16.89672 | -97.87401 | 32142 ft | 489 kts | 84° |
| 2026-04-26 17:51 | 16.89916 | -97.83862 | 32638 ft | 489 kts | 84° |
| 2026-04-26 17:51 | 16.90162 | -97.80323 | 33162 ft | 488 kts | 84° |
| 2026-04-26 17:52 | 16.90406 | -97.76786 | 33663 ft | 488 kts | 84° |
| 2026-04-26 17:52 | 16.90645 | -97.73281 | 34146 ft | 488 kts | 83° |
| 2026-04-26 17:52 | 16.90884 | -97.69737 | 34679 ft | 487 kts | 83° |
| 2026-04-26 17:52 | 16.91122 | -97.66210 | 35214 ft | 486 kts | 83° |
| 2026-04-26 17:53 | 16.91358 | -97.62732 | 35749 ft | 484 kts | 83° |
| 2026-04-26 17:53 | 16.91595 | -97.59234 | 36282 ft | 482 kts | 83° |
| 2026-04-26 17:53 | 16.91833 | -97.55739 | 36786 ft | 482 kts | 83° |
| 2026-04-26 17:54 | 16.92298 | -97.48780 | 37859 ft | 477 kts | 83° |
| 2026-04-26 17:54 | 16.92526 | -97.45338 | 38446 ft | 474 kts | 83° |
| 2026-04-26 17:54 | 16.92756 | -97.41907 | 39003 ft | 472 kts | 83° |
| 2026-04-26 17:54 | 16.92985 | -97.38497 | 39559 ft | 469 kts | 83° |
| 2026-04-26 17:55 | 16.93214 | -97.35096 | 39984 ft | 470 kts | 83° |
| 2026-04-26 17:55 | 16.93440 | -97.31687 | 40358 ft | 470 kts | 83° |
| 2026-04-26 17:55 | 16.93664 | -97.28270 | 40741 ft | 471 kts | 83° |
| 2026-04-26 17:55 | 16.93888 | -97.24852 | 41110 ft | 472 kts | 83° |
| 2026-04-26 17:56 | 16.94115 | -97.21408 | 41153 ft | 480 kts | 84° |
| 2026-04-26 17:56 | 16.94580 | -97.14310 | 41171 ft | 499 kts | 84° |
| 2026-04-26 17:57 | 16.95052 | -97.07012 | 41187 ft | 515 kts | 84° |
| 2026-04-26 17:57 | 16.95543 | -96.99461 | 41185 ft | 523 kts | 84° |
| 2026-04-26 17:58 | 16.96520 | -96.84255 | 41184 ft | 525 kts | 84° |
| 2026-04-26 17:59 | 16.96927 | -96.72817 | 41179 ft | 528 kts | 92° |
| 2026-04-26 17:59 | 16.95461 | -96.65282 | 41180 ft | 532 kts | 107° |
| 2026-04-26 18:00 | 16.92741 | -96.58091 | 41203 ft | 533 kts | 112° |